createdAt,value
2017-10-03T00:00:54.866Z,14.38
2017-10-03T00:01:54.966Z,14.37
2017-10-03T00:02:54.833Z,14.39
2017-10-03T00:03:54.875Z,14.61
2017-10-03T00:04:54.804Z,14.57
2017-10-03T00:05:54.888Z,14.50
2017-10-03T00:06:54.769Z,14.57
2017-10-03T00:07:54.793Z,14.61
2017-10-03T00:08:54.744Z,14.57
2017-10-03T00:09:54.819Z,14.61
2017-10-03T00:10:54.719Z,14.52
2017-10-03T00:11:54.731Z,14.52
2017-10-03T00:12:54.699Z,14.56
2017-10-03T00:13:54.743Z,14.32
2017-10-03T00:14:54.652Z,14.24
2017-10-03T00:15:54.755Z,14.28
2017-10-03T00:16:54.610Z,14.29
2017-10-03T00:17:54.664Z,14.39
2017-10-03T00:18:54.583Z,14.52
2017-10-03T00:19:54.684Z,14.38
2017-10-03T00:20:54.556Z,14.39
2017-10-03T00:21:54.594Z,14.28
2017-10-03T00:22:54.515Z,14.27
2017-10-03T00:23:54.617Z,14.16
2017-10-03T00:24:55.369Z,14.27
2017-10-03T00:25:54.519Z,14.28
2017-10-03T00:26:54.458Z,14.32
2017-10-03T00:27:54.554Z,14.20
2017-10-03T00:28:54.419Z,14.38
2017-10-03T00:29:54.554Z,14.42
2017-10-03T00:30:54.392Z,14.39
2017-10-03T00:31:54.466Z,14.28
2017-10-03T00:32:54.360Z,14.37
2017-10-03T00:33:54.477Z,14.31
2017-10-03T00:34:54.330Z,14.19
2017-10-03T00:35:54.391Z,14.21
2017-10-03T00:36:54.298Z,14.35
2017-10-03T00:37:54.408Z,14.32
2017-10-03T00:38:54.263Z,14.25
2017-10-03T00:39:54.321Z,14.25
2017-10-03T00:40:54.239Z,14.19
2017-10-03T00:41:54.335Z,14.31
2017-10-03T00:42:54.195Z,14.32
2017-10-03T00:43:54.247Z,14.25
2017-10-03T00:44:54.168Z,14.24
2017-10-03T00:45:54.257Z,14.37
2017-10-03T00:46:54.142Z,14.21
2017-10-03T00:47:54.162Z,14.28
2017-10-03T00:48:54.101Z,14.28
2017-10-03T00:49:54.196Z,14.13
2017-10-03T00:50:54.073Z,13.99
2017-10-03T00:51:54.093Z,14.06
2017-10-03T00:52:54.038Z,14.04
2017-10-03T00:53:54.115Z,14.12
2017-10-03T00:54:54.008Z,14.07
2017-10-03T00:55:54.131Z,14.06
2017-10-03T00:56:53.982Z,13.99
2017-10-03T00:57:54.038Z,13.89
2017-10-03T00:58:53.943Z,13.91
2017-10-03T00:59:54.052Z,13.91
2017-10-03T01:00:53.911Z,13.94
2017-10-03T01:01:53.963Z,13.92
2017-10-03T01:02:53.889Z,13.88
2017-10-03T01:03:53.979Z,13.87
2017-10-03T01:04:53.836Z,13.83
2017-10-03T01:05:53.895Z,13.74
2017-10-03T01:06:53.810Z,13.89
2017-10-03T01:07:53.906Z,13.96
2017-10-03T01:08:53.779Z,13.89
2017-10-03T01:09:53.765Z,13.95
2017-10-03T01:10:53.821Z,13.95
2017-10-03T01:11:53.728Z,13.81
2017-10-03T01:12:53.837Z,13.92
2017-10-03T01:13:53.705Z,13.77
2017-10-03T01:14:53.744Z,13.77
2017-10-03T01:15:53.669Z,13.84
2017-10-03T01:16:53.774Z,13.80
2017-10-03T01:17:53.640Z,13.81
2017-10-03T01:18:53.677Z,13.80
2017-10-03T01:19:53.600Z,13.83
2017-10-03T01:20:53.684Z,13.88
2017-10-03T01:21:53.557Z,13.84
2017-10-03T01:22:53.615Z,13.77
2017-10-03T01:23:53.530Z,13.84
2017-10-03T01:24:53.621Z,13.89
2017-10-03T01:25:53.491Z,13.83
2017-10-03T01:26:53.535Z,13.84
2017-10-03T01:27:53.466Z,13.91
2017-10-03T01:28:53.541Z,13.94
2017-10-03T01:29:53.430Z,13.95
2017-10-03T01:30:53.454Z,13.95
2017-10-03T01:31:53.409Z,13.91
2017-10-03T01:32:53.475Z,13.96
2017-10-03T01:33:53.381Z,14.01
2017-10-03T01:34:53.488Z,14.02
2017-10-03T01:35:53.336Z,13.91
2017-10-03T01:36:53.401Z,14.01
2017-10-03T01:37:53.305Z,14.04
2017-10-03T01:38:53.418Z,13.91
2017-10-03T01:39:53.280Z,13.92
2017-10-03T01:40:53.338Z,14.07
2017-10-03T01:41:53.240Z,14.04
2017-10-03T01:42:53.349Z,14.02
2017-10-03T01:43:53.208Z,13.94
2017-10-03T01:44:53.253Z,13.92
2017-10-03T01:45:53.202Z,13.98
2017-10-03T01:46:53.269Z,13.99
2017-10-03T01:47:53.198Z,13.89
2017-10-03T01:48:53.180Z,13.79
2017-10-03T01:49:53.129Z,13.74
2017-10-03T01:50:53.196Z,13.91
2017-10-03T01:51:53.085Z,13.91
2017-10-03T01:52:53.108Z,13.76
2017-10-03T01:53:53.056Z,13.79
2017-10-03T01:54:53.123Z,13.91
2017-10-03T01:55:53.031Z,13.88
2017-10-03T01:56:53.127Z,13.94
2017-10-03T01:57:52.987Z,13.89
2017-10-03T01:58:53.053Z,13.96
2017-10-03T01:59:52.961Z,13.92
2017-10-03T02:00:53.060Z,13.96
2017-10-03T02:01:52.922Z,13.77
2017-10-03T02:02:52.975Z,13.81
2017-10-03T02:03:52.895Z,13.67
2017-10-03T02:04:52.985Z,13.73
2017-10-03T02:05:52.862Z,13.71
2017-10-03T02:06:52.901Z,13.67
2017-10-03T02:07:52.823Z,13.63
2017-10-03T02:08:52.905Z,13.63
2017-10-03T02:09:52.802Z,13.74
2017-10-03T02:10:52.789Z,13.73
2017-10-03T02:11:52.837Z,13.69
2017-10-03T02:12:52.750Z,13.71
2017-10-03T02:13:52.849Z,13.69
2017-10-03T02:14:52.728Z,13.74
2017-10-03T02:15:52.765Z,13.62
2017-10-03T02:16:52.750Z,13.59
2017-10-03T02:17:52.767Z,13.69
2017-10-03T02:18:52.659Z,13.73
2017-10-03T02:19:52.682Z,13.62
2017-10-03T02:20:52.637Z,13.69
2017-10-03T02:21:52.703Z,13.56
2017-10-03T02:22:52.596Z,13.56
2017-10-03T02:23:52.625Z,13.55
2017-10-03T02:24:52.556Z,13.56
2017-10-03T02:25:52.629Z,13.62
2017-10-03T02:26:52.524Z,13.63
2017-10-03T02:27:52.537Z,13.63
2017-10-03T02:28:52.497Z,13.74
2017-10-03T02:29:52.553Z,13.65
2017-10-03T02:30:52.450Z,13.61
2017-10-03T02:31:52.562Z,13.65
2017-10-03T02:32:52.427Z,13.58
2017-10-03T02:33:52.481Z,13.55
2017-10-03T02:34:52.407Z,13.56
2017-10-03T02:35:52.499Z,13.61
2017-10-03T02:36:52.362Z,13.58
2017-10-03T02:37:52.401Z,13.49
2017-10-03T02:38:52.322Z,13.59
2017-10-03T02:39:52.420Z,13.51
2017-10-03T02:40:52.294Z,13.46
2017-10-03T02:41:52.338Z,13.36
2017-10-03T02:42:52.261Z,13.38
2017-10-03T02:43:52.350Z,13.46
2017-10-03T02:44:52.236Z,13.44
2017-10-03T02:45:52.263Z,13.55
2017-10-03T02:46:52.208Z,13.55
2017-10-03T02:47:52.270Z,13.51
2017-10-03T02:48:52.166Z,13.55
2017-10-03T02:49:52.186Z,13.62
2017-10-03T02:50:52.137Z,13.61
2017-10-03T02:51:52.204Z,13.63
2017-10-03T02:52:52.104Z,13.59
2017-10-03T02:53:52.224Z,13.63
2017-10-03T02:54:52.076Z,13.62
2017-10-03T02:55:52.127Z,13.62
2017-10-03T02:56:52.041Z,13.61
2017-10-03T02:57:52.154Z,13.61
2017-10-03T02:58:52.006Z,13.58
2017-10-03T02:59:52.052Z,13.70
2017-10-03T03:00:51.972Z,13.69
2017-10-03T03:01:52.068Z,13.56
2017-10-03T03:02:51.962Z,13.59
2017-10-03T03:03:51.985Z,13.52
2017-10-03T03:04:51.920Z,13.63
2017-10-03T03:05:52.006Z,13.43
2017-10-03T03:06:51.879Z,13.43
2017-10-03T03:07:51.906Z,13.52
2017-10-03T03:08:51.848Z,13.52
2017-10-03T03:09:51.926Z,13.55
2017-10-03T03:10:51.817Z,13.44
2017-10-03T03:11:51.803Z,13.44
2017-10-03T03:12:51.845Z,13.51
2017-10-03T03:13:51.770Z,13.44
2017-10-03T03:14:51.860Z,13.44
2017-10-03T03:15:51.738Z,13.41
2017-10-03T03:16:51.770Z,13.30
2017-10-03T03:17:51.707Z,13.33
2017-10-03T03:18:51.781Z,13.27
2017-10-03T03:19:51.673Z,13.22
2017-10-03T03:20:51.695Z,13.30
2017-10-03T03:21:51.640Z,13.29
2017-10-03T03:22:51.707Z,13.29
2017-10-03T03:23:51.609Z,13.27
2017-10-03T03:24:51.618Z,13.17
2017-10-03T03:25:51.575Z,13.24
2017-10-03T03:26:51.637Z,13.27
2017-10-03T03:27:51.549Z,13.14
2017-10-03T03:28:51.651Z,13.20
2017-10-03T03:29:51.504Z,13.12
2017-10-03T03:30:51.566Z,13.21
2017-10-03T03:31:51.482Z,13.20
2017-10-03T03:32:51.578Z,13.29
2017-10-03T03:33:51.443Z,13.22
2017-10-03T03:34:51.489Z,13.25
2017-10-03T03:35:51.421Z,13.22
2017-10-03T03:36:51.505Z,13.43
2017-10-03T03:37:51.368Z,13.47
2017-10-03T03:38:51.420Z,13.51
2017-10-03T03:39:51.350Z,13.47
2017-10-03T03:40:51.439Z,13.47
2017-10-03T03:41:51.311Z,13.47
2017-10-03T03:42:51.351Z,13.49
2017-10-03T03:43:51.281Z,13.51
2017-10-03T03:44:51.357Z,13.36
2017-10-03T03:45:51.250Z,13.47
2017-10-03T03:46:51.273Z,13.40
2017-10-03T03:47:51.218Z,13.37
2017-10-03T03:48:51.284Z,13.24
2017-10-03T03:49:51.194Z,13.37
2017-10-03T03:50:51.197Z,13.36
2017-10-03T03:51:51.155Z,13.24
2017-10-03T03:52:51.214Z,13.44
2017-10-03T03:53:51.118Z,13.37
2017-10-03T03:54:51.224Z,13.47
2017-10-03T03:55:51.086Z,13.55
2017-10-03T03:56:51.136Z,13.44
2017-10-03T03:57:51.053Z,13.52
2017-10-03T03:58:51.148Z,13.47
2017-10-03T03:59:51.026Z,13.46
2017-10-03T04:00:51.066Z,13.40
2017-10-03T04:01:50.990Z,13.46
2017-10-03T04:02:51.070Z,13.56
2017-10-03T04:03:50.953Z,13.37
2017-10-03T04:04:50.988Z,13.54
2017-10-03T04:05:50.922Z,13.33
2017-10-03T04:06:51.006Z,13.41
2017-10-03T04:07:50.896Z,13.51
2017-10-03T04:08:50.921Z,13.41
2017-10-03T04:09:50.859Z,13.38
2017-10-03T04:10:50.932Z,13.17
2017-10-03T04:11:50.822Z,13.27
2017-10-03T04:12:50.814Z,13.33
2017-10-03T04:13:50.853Z,13.32
2017-10-03T04:14:50.779Z,13.32
2017-10-03T04:15:50.867Z,13.25
2017-10-03T04:16:50.744Z,13.27
2017-10-03T04:17:50.782Z,13.30
2017-10-03T04:18:50.699Z,13.29
2017-10-03T04:19:50.792Z,13.22
2017-10-03T04:20:50.667Z,13.24
2017-10-03T04:21:50.703Z,13.09
2017-10-03T04:22:50.643Z,13.25
2017-10-03T04:23:50.717Z,13.30
2017-10-03T04:24:50.612Z,13.32
2017-10-03T04:25:50.631Z,13.24
2017-10-03T04:26:50.580Z,13.29
2017-10-03T04:27:50.642Z,13.29
2017-10-03T04:28:50.547Z,13.27
2017-10-03T04:29:50.659Z,13.20
2017-10-03T04:30:50.517Z,13.12
2017-10-03T04:31:50.570Z,13.12
2017-10-03T04:32:50.480Z,13.07
2017-10-03T04:33:50.588Z,12.96
2017-10-03T04:34:50.436Z,12.99
2017-10-03T04:35:50.493Z,12.96
2017-10-03T04:36:50.408Z,12.97
2017-10-03T04:37:50.510Z,13.02
2017-10-03T04:38:50.368Z,13.09
2017-10-03T04:39:50.424Z,13.09
2017-10-03T04:40:50.342Z,13.03
2017-10-03T04:41:50.440Z,13.15
2017-10-03T04:42:50.302Z,13.12
2017-10-03T04:43:50.347Z,13.21
2017-10-03T04:44:50.277Z,13.06
2017-10-03T04:45:50.365Z,12.96
2017-10-03T04:46:50.244Z,12.87
2017-10-03T04:47:50.275Z,12.95
2017-10-03T04:48:50.216Z,12.99
2017-10-03T04:49:50.289Z,12.92
2017-10-03T04:50:50.173Z,12.81
2017-10-03T04:51:50.203Z,12.87
2017-10-03T04:52:50.144Z,12.97
2017-10-03T04:53:50.222Z,12.87
2017-10-03T04:54:50.098Z,13.00
2017-10-03T04:55:50.139Z,12.81
2017-10-03T04:56:50.073Z,12.92
2017-10-03T04:57:50.149Z,12.92
2017-10-03T04:58:50.040Z,12.88
2017-10-03T04:59:50.059Z,12.84
2017-10-03T05:00:50.025Z,12.84
2017-10-03T05:01:50.073Z,12.79
2017-10-03T05:02:49.968Z,12.79
2017-10-03T05:03:49.991Z,12.79
2017-10-03T05:04:49.936Z,12.79
2017-10-03T05:05:49.999Z,12.75
2017-10-03T05:06:49.907Z,12.64
2017-10-03T05:07:50.015Z,12.74
2017-10-03T05:08:49.868Z,12.70
2017-10-03T05:10:49.830Z,12.79
2017-10-03T05:11:49.942Z,12.87
2017-10-03T05:12:49.797Z,12.77
2017-10-03T05:13:49.787Z,12.85
2017-10-03T05:14:49.861Z,12.85
2017-10-03T05:15:49.752Z,12.97
2017-10-03T05:16:49.778Z,12.79
2017-10-03T05:17:49.730Z,12.75
2017-10-03T05:18:49.793Z,12.70
2017-10-03T05:19:49.684Z,12.74
2017-10-03T05:20:49.801Z,12.66
2017-10-03T05:21:49.659Z,12.78
2017-10-03T05:22:49.713Z,12.77
2017-10-03T05:23:49.615Z,12.66
2017-10-03T05:24:49.736Z,12.69
2017-10-03T05:25:49.586Z,12.67
2017-10-03T05:26:49.641Z,12.75
2017-10-03T05:27:49.545Z,12.64
2017-10-03T05:28:49.658Z,12.75
2017-10-03T05:29:49.521Z,12.75
2017-10-03T05:30:49.581Z,12.64
2017-10-03T05:31:49.471Z,12.63
2017-10-03T05:32:49.584Z,12.74
2017-10-03T05:33:49.442Z,12.75
2017-10-03T05:34:49.498Z,12.75
2017-10-03T05:35:49.408Z,12.82
2017-10-03T05:36:49.511Z,12.77
2017-10-03T05:37:49.388Z,12.67
2017-10-03T05:38:49.423Z,12.63
2017-10-03T05:39:49.349Z,12.71
2017-10-03T05:40:49.435Z,12.69
2017-10-03T05:41:49.304Z,12.79
2017-10-03T05:42:49.355Z,12.77
2017-10-03T05:43:49.276Z,12.69
2017-10-03T05:44:49.363Z,12.62
2017-10-03T05:45:49.233Z,12.77
2017-10-03T05:46:49.272Z,12.81
2017-10-03T05:47:49.211Z,12.71
2017-10-03T05:48:49.321Z,12.70
2017-10-03T05:49:49.162Z,12.74
2017-10-03T05:50:49.202Z,12.78
2017-10-03T05:51:49.132Z,12.69
2017-10-03T05:52:49.227Z,12.75
2017-10-03T05:53:49.095Z,12.67
2017-10-03T05:54:49.128Z,12.64
2017-10-03T05:55:49.062Z,12.69
2017-10-03T05:56:49.156Z,12.81
2017-10-03T05:57:49.052Z,12.88
2017-10-03T05:58:49.060Z,12.71
2017-10-03T05:59:49.013Z,12.84
2017-10-03T06:00:49.080Z,12.74
2017-10-03T06:01:48.969Z,12.74
2017-10-03T06:02:49.076Z,12.81
2017-10-03T06:03:48.938Z,12.66
2017-10-03T06:04:48.995Z,12.67
2017-10-03T06:05:48.914Z,12.79
2017-10-03T06:06:48.998Z,12.74
2017-10-03T06:07:48.866Z,12.79
2017-10-03T06:08:48.927Z,12.77
2017-10-03T06:09:48.828Z,12.85
2017-10-03T06:10:48.935Z,12.74
2017-10-03T06:11:48.800Z,12.64
2017-10-03T06:12:48.853Z,12.74
2017-10-03T06:13:48.766Z,12.85
2017-10-03T06:14:48.752Z,12.81
2017-10-03T06:15:48.772Z,12.82
2017-10-03T06:16:48.723Z,12.85
2017-10-03T06:17:48.786Z,12.79
2017-10-03T06:18:48.674Z,12.82
2017-10-03T06:19:48.801Z,12.89
2017-10-03T06:20:48.648Z,12.85
2017-10-03T06:21:48.702Z,12.81
2017-10-03T06:22:48.612Z,12.78
2017-10-03T06:23:48.717Z,12.81
2017-10-03T06:24:48.582Z,12.93
2017-10-03T06:25:48.726Z,12.95
2017-10-03T06:26:48.550Z,12.92
2017-10-03T06:27:48.679Z,12.85
2017-10-03T06:28:48.511Z,12.88
2017-10-03T06:29:48.567Z,12.96
2017-10-03T06:30:48.486Z,13.17
2017-10-03T06:32:48.441Z,13.09
2017-10-03T06:33:48.494Z,13.12
2017-10-03T06:34:48.410Z,13.07
2017-10-03T06:35:48.498Z,13.04
2017-10-03T06:36:48.374Z,12.95
2017-10-03T06:37:48.410Z,13.06
2017-10-03T06:38:48.353Z,13.18
2017-10-03T06:39:48.428Z,13.15
2017-10-03T06:40:48.303Z,13.14
2017-10-03T06:41:48.343Z,13.06
2017-10-03T06:42:48.279Z,13.04
2017-10-03T06:43:48.357Z,12.97
2017-10-03T06:44:48.237Z,13.07
2017-10-03T06:45:48.261Z,13.00
2017-10-03T06:46:48.203Z,12.99
2017-10-03T06:47:48.281Z,12.89
2017-10-03T06:48:48.175Z,12.95
2017-10-03T06:49:48.196Z,12.95
2017-10-03T06:50:48.150Z,12.95
2017-10-03T06:51:48.210Z,12.71
2017-10-03T06:52:48.109Z,12.82
2017-10-03T06:53:48.224Z,12.78
2017-10-03T06:54:48.073Z,12.84
2017-10-03T06:55:48.148Z,12.96
2017-10-03T06:56:48.038Z,13.06
2017-10-03T06:57:48.144Z,13.27
2017-10-03T06:58:48.007Z,13.21
2017-10-03T06:59:48.059Z,13.12
2017-10-03T07:00:47.974Z,13.20
2017-10-03T07:01:48.076Z,13.17
2017-10-03T07:02:47.935Z,13.20
2017-10-03T07:03:47.993Z,13.29
2017-10-03T07:04:47.908Z,13.22
2017-10-03T07:05:48.002Z,13.33
2017-10-03T07:06:47.869Z,13.32
2017-10-03T07:07:47.919Z,13.33
2017-10-03T07:08:47.839Z,13.40
2017-10-03T07:09:47.928Z,13.52
2017-10-03T07:10:47.800Z,13.44
2017-10-03T07:11:47.835Z,13.55
2017-10-03T07:12:47.767Z,13.52
2017-10-03T07:13:47.850Z,13.55
2017-10-03T07:14:47.736Z,13.56
2017-10-03T07:15:47.735Z,13.58
2017-10-03T07:16:47.776Z,13.62
2017-10-03T07:17:47.694Z,13.70
2017-10-03T07:18:47.788Z,13.80
2017-10-03T07:19:47.648Z,13.92
2017-10-03T07:20:47.701Z,14.02
2017-10-03T07:21:47.623Z,14.04
2017-10-03T07:22:47.725Z,13.99
2017-10-03T07:23:47.594Z,13.98
2017-10-03T07:24:47.623Z,13.84
2017-10-03T07:25:47.558Z,13.74
2017-10-03T07:26:47.642Z,13.81
2017-10-03T07:27:47.521Z,13.81
2017-10-03T07:28:47.549Z,13.91
2017-10-03T07:29:47.490Z,13.92
2017-10-03T07:30:47.574Z,14.09
2017-10-03T07:31:47.459Z,14.10
2017-10-03T07:32:47.481Z,14.28
2017-10-03T07:33:47.429Z,14.32
2017-10-03T07:34:47.498Z,14.39
2017-10-03T07:35:47.399Z,14.38
2017-10-03T07:36:47.514Z,14.57
2017-10-03T07:37:47.370Z,14.67
2017-10-03T07:38:47.426Z,14.74
2017-10-03T07:39:47.337Z,14.69
2017-10-03T07:40:47.364Z,15.03
2017-10-03T07:41:47.302Z,15.79
2017-10-03T07:42:47.348Z,16.90
2017-10-03T07:43:47.270Z,17.41
2017-10-03T07:44:47.363Z,17.13
2017-10-03T07:45:47.237Z,17.63
2017-10-03T07:46:47.271Z,18.64
2017-10-03T07:47:47.227Z,18.02
2017-10-03T07:48:47.983Z,19.40
2017-10-03T07:49:47.192Z,19.83
2017-10-03T07:50:47.299Z,20.34
2017-10-03T07:51:47.164Z,20.83
2017-10-03T07:52:47.215Z,20.91
2017-10-03T07:53:47.142Z,21.45
2017-10-03T07:54:47.228Z,22.04
2017-10-03T07:55:47.126Z,22.01
2017-10-03T07:56:47.139Z,22.39
2017-10-03T07:57:47.108Z,23.19
2017-10-03T07:58:47.161Z,23.55
2017-10-03T07:59:47.076Z,23.38
2017-10-03T08:00:47.172Z,23.76
2017-10-03T08:01:47.073Z,24.10
2017-10-03T08:02:47.186Z,23.85
2017-10-03T08:03:47.041Z,23.40
2017-10-03T08:04:47.096Z,23.70
2017-10-03T08:05:47.026Z,21.99
2017-10-03T08:06:47.112Z,20.91
2017-10-03T08:07:47.011Z,22.01
2017-10-03T08:08:47.028Z,22.64
2017-10-03T08:09:46.976Z,22.94
2017-10-03T08:10:47.036Z,23.22
2017-10-03T08:11:46.968Z,23.72
2017-10-03T08:12:47.061Z,24.59
2017-10-03T08:13:46.946Z,24.95
2017-10-03T08:14:47.071Z,25.37
2017-10-03T08:15:46.940Z,25.68
2017-10-03T08:16:46.935Z,25.79
2017-10-03T08:17:46.983Z,26.42
2017-10-03T08:18:46.905Z,26.77
2017-10-03T08:20:46.914Z,26.43
2017-10-03T08:21:47.014Z,25.82
2017-10-03T08:22:46.879Z,23.97
2017-10-03T08:23:46.946Z,22.37
2017-10-03T08:24:46.866Z,21.23
2017-10-03T08:25:46.946Z,20.33
2017-10-03T08:26:46.843Z,19.93
2017-10-03T08:27:46.955Z,19.66
2017-10-03T08:28:46.822Z,19.54
2017-10-03T08:29:46.862Z,19.35
2017-10-03T08:30:46.802Z,19.25
2017-10-03T08:31:46.966Z,18.86
2017-10-03T08:32:46.786Z,18.77
2017-10-03T08:33:46.841Z,18.57
2017-10-03T08:34:46.759Z,18.15
2017-10-03T08:35:46.808Z,17.76
2017-10-03T08:36:46.731Z,17.62
2017-10-03T08:37:46.893Z,17.59
2017-10-03T08:38:46.711Z,17.54
2017-10-03T08:39:46.731Z,17.69
2017-10-03T08:40:46.686Z,17.53
2017-10-03T08:41:46.751Z,17.54
2017-10-03T08:42:46.651Z,17.38
2017-10-03T08:43:46.771Z,17.38
2017-10-03T08:44:46.632Z,17.43
2017-10-03T08:45:46.683Z,17.53
2017-10-03T08:46:46.640Z,17.32
2017-10-03T08:47:46.688Z,17.17
2017-10-03T08:48:46.573Z,17.08
2017-10-03T08:49:46.614Z,17.08
2017-10-03T08:50:46.555Z,17.22
2017-10-03T08:51:46.622Z,17.11
2017-10-03T08:52:46.525Z,16.98
2017-10-03T08:53:46.638Z,17.11
2017-10-03T08:54:46.494Z,16.95
2017-10-03T08:55:46.551Z,16.92
2017-10-03T08:56:46.467Z,16.80
2017-10-03T08:57:46.559Z,16.96
2017-10-03T08:58:46.433Z,16.95
2017-10-03T08:59:46.475Z,17.00
2017-10-03T09:00:46.411Z,16.70
2017-10-03T09:01:46.485Z,16.88
2017-10-03T09:02:46.383Z,16.89
2017-10-03T09:03:46.398Z,17.06
2017-10-03T09:04:46.363Z,16.81
2017-10-03T09:05:46.415Z,16.90
2017-10-03T09:06:46.325Z,16.90
2017-10-03T09:07:46.426Z,16.80
2017-10-03T09:08:46.301Z,16.93
2017-10-03T09:09:46.349Z,16.81
2017-10-03T09:10:46.274Z,16.88
2017-10-03T09:11:46.355Z,16.67
2017-10-03T09:12:46.254Z,16.70
2017-10-03T09:13:46.265Z,16.65
2017-10-03T09:14:46.218Z,16.50
2017-10-03T09:15:46.298Z,16.52
2017-10-03T09:16:46.193Z,16.60
2017-10-03T09:17:46.300Z,16.59
2017-10-03T09:18:46.168Z,16.35
2017-10-03T09:19:46.209Z,16.37
2017-10-03T09:20:46.134Z,16.45
2017-10-03T09:21:46.221Z,16.42
2017-10-03T09:22:46.102Z,16.59
2017-10-03T09:23:46.138Z,16.74
2017-10-03T09:24:46.075Z,16.89
2017-10-03T09:25:46.149Z,17.03
2017-10-03T09:26:46.048Z,17.06
2017-10-03T09:27:46.164Z,17.26
2017-10-03T09:28:46.027Z,17.43
2017-10-03T09:29:46.082Z,17.55
2017-10-03T09:30:45.996Z,17.33
2017-10-03T09:31:46.094Z,17.36
2017-10-03T09:32:45.966Z,17.35
2017-10-03T09:33:46.002Z,17.36
2017-10-03T09:34:45.940Z,17.28
2017-10-03T09:35:46.019Z,17.25
2017-10-03T09:36:45.910Z,17.06
2017-10-03T09:37:46.032Z,17.07
2017-10-03T09:38:45.874Z,17.11
2017-10-03T09:39:45.948Z,17.41
2017-10-03T09:40:45.850Z,17.48
2017-10-03T09:41:45.956Z,17.40
2017-10-03T09:42:45.832Z,17.44
2017-10-03T09:43:45.828Z,17.43
2017-10-03T09:44:45.827Z,17.40
2017-10-03T09:45:45.883Z,17.41
2017-10-03T09:46:45.797Z,17.48
2017-10-03T09:47:45.793Z,17.22
2017-10-03T09:48:45.766Z,17.03
2017-10-03T09:49:45.812Z,17.13
2017-10-03T09:50:45.732Z,17.18
2017-10-03T09:51:45.818Z,17.06
2017-10-03T09:52:45.698Z,16.88
2017-10-03T09:53:45.739Z,16.81
2017-10-03T09:54:45.667Z,16.95
2017-10-03T09:55:45.753Z,16.86
2017-10-03T09:56:45.645Z,17.03
2017-10-03T09:57:45.662Z,17.04
2017-10-03T09:58:45.615Z,17.04
2017-10-03T09:59:45.678Z,17.47
2017-10-03T10:00:45.590Z,17.64
2017-10-03T10:01:45.685Z,17.84
2017-10-03T10:02:45.548Z,17.50
2017-10-03T10:03:45.604Z,17.51
2017-10-03T10:04:45.527Z,17.64
2017-10-03T10:05:45.617Z,17.82
2017-10-03T10:06:45.507Z,17.88
2017-10-03T10:07:45.536Z,18.34
2017-10-03T10:08:45.478Z,18.55
2017-10-03T10:09:45.542Z,18.37
2017-10-03T10:10:46.027Z,18.72
2017-10-03T10:11:45.561Z,20.10
2017-10-03T10:12:45.424Z,21.61
2017-10-03T10:13:45.471Z,20.68
2017-10-03T10:14:45.402Z,22.06
2017-10-03T10:15:45.491Z,21.09
2017-10-03T10:16:45.390Z,19.97
2017-10-03T10:17:45.503Z,19.23
2017-10-03T10:18:45.366Z,18.95
2017-10-03T10:19:45.366Z,18.67
2017-10-03T10:20:45.421Z,18.39
2017-10-03T10:21:45.328Z,19.10
2017-10-03T10:22:45.429Z,18.65
2017-10-03T10:23:45.312Z,18.29
2017-10-03T10:24:45.342Z,20.74
2017-10-03T10:25:45.282Z,20.77
2017-10-03T10:26:45.364Z,21.14
2017-10-03T10:27:45.276Z,20.02
2017-10-03T10:28:45.379Z,19.25
2017-10-03T10:29:45.250Z,18.94
2017-10-03T10:30:45.284Z,21.05
2017-10-03T10:31:45.213Z,23.85
2017-10-03T10:32:45.309Z,25.77
2017-10-03T10:33:45.201Z,25.65
2017-10-03T10:34:45.310Z,24.61
2017-10-03T10:35:45.187Z,27.09
2017-10-03T10:36:45.244Z,28.51
2017-10-03T10:37:45.184Z,29.50
2017-10-03T10:38:45.256Z,29.13
2017-10-03T10:39:45.166Z,28.58
2017-10-03T10:40:45.258Z,28.43
2017-10-03T10:41:45.171Z,26.15
2017-10-03T10:42:45.281Z,24.23
2017-10-03T10:43:45.154Z,24.44
2017-10-03T10:44:45.190Z,24.50
2017-10-03T10:45:45.146Z,24.69
2017-10-03T10:46:45.207Z,25.84
2017-10-03T10:47:45.142Z,24.42
2017-10-03T10:48:45.222Z,22.53
2017-10-03T10:49:45.136Z,23.27
2017-10-03T10:50:45.237Z,25.79
2017-10-03T10:51:45.108Z,26.61
2017-10-03T10:52:45.144Z,27.39
2017-10-03T10:53:45.106Z,28.14
2017-10-03T10:54:45.158Z,28.63
2017-10-03T10:55:45.104Z,25.46
2017-10-03T10:56:45.170Z,25.39
2017-10-03T10:57:45.099Z,23.72
2017-10-03T10:58:45.184Z,22.74
2017-10-03T10:59:45.088Z,22.68
2017-10-03T11:00:45.203Z,25.31
2017-10-03T11:01:45.075Z,24.88
2017-10-03T11:02:45.110Z,27.11
2017-10-03T11:03:45.063Z,28.25
2017-10-03T11:04:45.069Z,28.87
2017-10-03T11:05:45.061Z,27.01
2017-10-03T11:06:45.145Z,26.27
2017-10-03T11:07:45.043Z,24.88
2017-10-03T11:08:45.151Z,24.77
2017-10-03T11:09:45.091Z,22.93
2017-10-03T11:10:45.067Z,22.29
2017-10-03T11:11:45.026Z,22.87
2017-10-03T11:12:45.077Z,23.75
2017-10-03T11:13:45.034Z,24.67
2017-10-03T11:14:45.097Z,24.59
2017-10-03T11:15:45.545Z,23.67
2017-10-03T11:16:45.105Z,23.87
2017-10-03T11:17:45.062Z,22.87
2017-10-03T11:18:45.024Z,22.52
2017-10-03T11:19:44.982Z,21.91
2017-10-03T11:20:44.979Z,21.75
2017-10-03T11:21:45.045Z,21.66
2017-10-03T11:22:44.961Z,21.56
2017-10-03T11:23:45.093Z,21.35
2017-10-03T11:24:44.942Z,21.11
2017-10-03T11:25:44.969Z,20.61
2017-10-03T11:26:44.922Z,20.35
2017-10-03T11:27:44.984Z,20.28
2017-10-03T11:28:44.909Z,20.23
2017-10-03T11:29:45.000Z,19.86
2017-10-03T11:30:44.896Z,19.69
2017-10-03T11:31:44.910Z,19.63
2017-10-03T11:32:44.867Z,19.40
2017-10-03T11:33:44.917Z,19.39
2017-10-03T11:34:44.838Z,19.17
2017-10-03T11:35:44.941Z,18.98
2017-10-03T11:36:44.819Z,18.73
2017-10-03T11:37:44.852Z,18.57
2017-10-03T11:38:44.794Z,18.68
2017-10-03T11:39:44.869Z,18.68
2017-10-03T11:40:44.777Z,18.70
2017-10-03T11:41:44.881Z,18.84
2017-10-03T11:42:44.749Z,19.14
2017-10-03T11:43:44.791Z,19.02
2017-10-03T11:44:44.729Z,18.76
2017-10-03T11:45:44.806Z,18.86
2017-10-03T11:46:44.706Z,18.59
2017-10-03T11:47:44.821Z,18.65
2017-10-03T11:48:44.673Z,19.01
2017-10-03T11:49:45.604Z,19.33
2017-10-03T11:50:44.740Z,20.23
2017-10-03T11:51:44.643Z,19.98
2017-10-03T11:52:44.757Z,20.80
2017-10-03T11:53:44.627Z,21.45
2017-10-03T11:54:44.670Z,20.98
2017-10-03T11:55:44.607Z,20.61
2017-10-03T11:56:44.685Z,20.10
2017-10-03T11:57:44.579Z,20.25
2017-10-03T11:58:44.691Z,19.83
2017-10-03T11:59:44.553Z,19.90
2017-10-03T12:00:44.611Z,19.73
2017-10-03T12:01:44.537Z,19.43
2017-10-03T12:02:44.643Z,19.28
2017-10-03T12:03:44.517Z,19.36
2017-10-03T12:04:44.538Z,19.98
2017-10-03T12:05:44.490Z,20.65
2017-10-03T12:06:44.555Z,21.17
2017-10-03T12:07:44.471Z,21.46
2017-10-03T12:08:44.561Z,21.81
2017-10-03T12:09:44.453Z,21.23
2017-10-03T12:10:44.473Z,20.71
2017-10-03T12:11:44.437Z,20.38
2017-10-03T12:12:44.498Z,20.03
2017-10-03T12:13:44.406Z,19.73
2017-10-03T12:14:44.511Z,19.69
2017-10-03T12:15:44.386Z,19.53
2017-10-03T12:16:44.417Z,19.61
2017-10-03T12:17:44.382Z,19.69
2017-10-03T12:18:44.433Z,19.17
2017-10-03T12:19:44.346Z,19.13
2017-10-03T12:20:44.451Z,18.97
2017-10-03T12:21:44.325Z,18.90
2017-10-03T12:22:44.361Z,18.98
2017-10-03T12:23:44.298Z,19.05
2017-10-03T12:24:44.382Z,19.15
2017-10-03T12:25:44.278Z,19.18
2017-10-03T12:26:44.392Z,19.18
2017-10-03T12:27:44.247Z,19.13
2017-10-03T12:28:44.299Z,18.99
2017-10-03T12:29:44.229Z,18.97
2017-10-03T12:30:44.311Z,18.92
2017-10-03T12:31:44.197Z,18.83
2017-10-03T12:32:44.227Z,18.82
2017-10-03T12:33:44.196Z,18.72
2017-10-03T12:34:44.236Z,18.76
2017-10-03T12:35:44.156Z,18.84
2017-10-03T12:36:44.258Z,18.76
2017-10-03T12:37:44.122Z,18.42
2017-10-03T12:38:44.168Z,18.28
2017-10-03T12:39:44.097Z,18.31
2017-10-03T12:40:44.183Z,18.09
2017-10-03T12:41:44.075Z,18.19
2017-10-03T12:42:44.068Z,18.19
2017-10-03T12:43:44.062Z,18.22
2017-10-03T12:44:44.111Z,18.37
2017-10-03T12:45:44.015Z,18.19
2017-10-03T12:46:44.117Z,18.17
2017-10-03T12:47:44.000Z,18.24
2017-10-03T12:48:44.033Z,18.27
2017-10-03T12:49:43.967Z,18.19
2017-10-03T12:50:44.048Z,18.21
2017-10-03T12:51:43.942Z,18.17
2017-10-03T12:52:43.961Z,18.17
2017-10-03T12:53:43.915Z,18.22
2017-10-03T12:54:43.970Z,18.17
2017-10-03T12:55:43.886Z,18.06